Time;durP1;ratioP1;P1;durP2;ratioP2;P2;SDS_P1;SDS_P2;PMS_P1;PMS_P2;Temp;Humidity;BMP_temperature;BMP_pressure;BME280_temperature;BME280_humidity;BME280_pressure;Samples;Min_cycle;Max_cycle;Signal;HPM_P1;HPM_P2
2023/10/08 00:02:25;;;;;;;3.53;0.60;;;13.60;99.90;;;;;;5060676;28;20071;-71
2023/10/08 00:04:52;;;;;;;4.80;0.70;;;13.70;99.90;;;;;;4990411;28;20053;-71
2023/10/08 00:07:21;;;;;;;2.25;0.57;;;13.60;99.90;;;;;;5056321;28;20072;-71
2023/10/08 00:09:51;;;;;;;4.95;0.80;;;13.70;99.90;;;;;;4989421;28;20049;-71
2023/10/08 00:12:19;;;;;;;5.55;0.90;;;13.70;99.90;;;;;;5055226;28;20057;-72
2023/10/08 00:14:49;;;;;;;4.18;1.00;;;13.70;99.90;;;;;;5001418;28;20050;-72
2023/10/08 00:17:17;;;;;;;4.03;0.80;;;13.70;99.90;;;;;;5057263;28;20040;-70
2023/10/08 00:19:43;;;;;;;3.55;0.80;;;13.70;99.90;;;;;;5002944;28;20606;-71
2023/10/08 00:22:13;;;;;;;5.05;1.10;;;13.70;99.90;;;;;;5051804;28;20053;-73
2023/10/08 00:24:41;;;;;;;7.40;1.15;;;13.70;99.90;;;;;;4999691;28;20052;-72
2023/10/08 00:27:08;;;;;;;4.32;1.00;;;13.60;99.90;;;;;;5057826;28;20053;-72
2023/10/08 00:29:39;;;;;;;4.68;1.13;;;13.60;99.90;;;;;;5003374;28;20053;-71
2023/10/08 00:32:11;;;;;;;7.30;1.20;;;13.60;99.90;;;;;;5052919;28;20060;-72
2023/10/08 00:34:41;;;;;;;6.80;1.15;;;13.60;99.90;;;;;;5007166;28;20096;-72
2023/10/08 00:37:09;;;;;;;4.60;1.10;;;13.60;99.90;;;;;;5056667;28;20057;-71
2023/10/08 00:39:38;;;;;;;5.68;1.20;;;13.60;99.90;;;;;;4999834;28;20115;-73
2023/10/08 00:42:07;;;;;;;6.85;1.00;;;13.60;99.90;;;;;;5043609;28;20055;-72
2023/10/08 00:44:51;;;;;;;6.60;1.20;;;13.60;99.90;;;;;;5012656;28;20052;-72
2023/10/08 00:47:18;;;;;;;4.63;0.90;;;13.60;99.90;;;;;;5055208;28;20052;-72
2023/10/08 00:57:20;;;;;;;3.22;0.73;;;13.60;99.90;;;;;;5053689;28;20387;-70
2023/10/08 00:59:53;;;;;;;3.65;0.70;;;13.50;99.90;;;;;;5002313;28;20045;-72
2023/10/08 01:02:27;;;;;;;4.10;0.80;;;13.50;99.90;;;;;;5040824;28;20045;-71
2023/10/08 01:04:57;;;;;;;3.63;0.70;;;13.40;99.90;;;;;;5000959;28;20076;-71
2023/10/08 01:07:25;;;;;;;4.75;0.85;;;13.40;99.90;;;;;;5059708;28;20076;-71
2023/10/08 01:09:51;;;;;;;3.85;0.70;;;13.30;99.90;;;;;;5002831;28;20277;-72
2023/10/08 01:12:35;;;;;;;4.32;0.75;;;13.30;99.90;;;;;;5060245;28;20045;-70
2023/10/08 01:15:13;;;;;;;3.85;0.75;;;13.30;99.90;;;;;;5005578;28;20065;-71
2023/10/08 01:17:52;;;;;;;4.85;0.88;;;13.30;99.90;;;;;;5053248;28;20044;-71
2023/10/08 01:20:39;;;;;;;4.03;0.60;;;13.30;99.90;;;;;;4999085;28;20043;-71
2023/10/08 01:23:27;;;;;;;2.70;0.60;;;13.40;99.90;;;;;;5019235;28;20053;-71
2023/10/08 01:28:49;;;;;;;3.70;0.80;;;13.20;99.90;;;;;;5007152;28;256519;-71
2023/10/08 01:31:15;;;;;;;4.68;0.70;;;13.30;99.90;;;;;;5047291;28;20422;-70
2023/10/08 01:33:49;;;;;;;3.67;0.60;;;13.30;99.90;;;;;;5021982;28;20059;-69
2023/10/08 01:36:16;;;;;;;4.57;0.70;;;13.30;99.90;;;;;;5057921;28;20422;-71
2023/10/08 01:38:42;;;;;;;3.85;0.73;;;13.30;99.90;;;;;;5004364;28;20577;-71
2023/10/08 01:41:29;;;;;;;5.47;0.80;;;13.30;99.90;;;;;;5047043;28;20055;-71
2023/10/08 01:43:57;;;;;;;4.47;0.80;;;13.30;99.90;;;;;;5001762;28;20040;-70
2023/10/08 01:46:25;;;;;;;3.90;0.80;;;13.40;99.90;;;;;;5053158;28;20080;-71
2023/10/08 01:49:00;;;;;;;4.22;0.70;;;13.40;99.90;;;;;;5004673;28;20064;-71
2023/10/08 01:51:36;;;;;;;6.00;0.88;;;13.40;99.90;;;;;;5028707;28;21230;-71
2023/10/08 01:54:04;;;;;;;4.95;0.70;;;13.40;99.90;;;;;;4991469;28;71564;-70
2023/10/08 01:56:30;;;;;;;5.35;0.90;;;13.40;99.90;;;;;;5057589;28;20396;-71
2023/10/08 01:58:56;;;;;;;5.20;0.90;;;13.40;99.90;;;;;;5014610;28;20170;-69
2023/10/08 02:01:22;;;;;;;4.63;1.00;;;13.40;99.90;;;;;;5048639;28;20053;-69
2023/10/08 02:03:48;;;;;;;5.47;0.80;;;13.50;99.90;;;;;;5024127;28;20052;-69
2023/10/08 02:06:14;;;;;;;4.80;0.80;;;13.50;99.90;;;;;;5060026;28;20053;-70
2023/10/08 02:08:41;;;;;;;5.10;1.00;;;13.50;99.90;;;;;;5019431;28;21111;-70
2023/10/08 02:11:08;;;;;;;4.82;0.70;;;13.50;99.90;;;;;;5045864;28;20048;-70
2023/10/08 02:13:34;;;;;;;5.20;0.80;;;13.50;99.90;;;;;;5012332;28;20057;-70
2023/10/08 02:16:01;;;;;;;3.17;0.70;;;13.50;99.90;;;;;;5038893;28;20052;-70
2023/10/08 02:18:29;;;;;;;5.10;0.88;;;13.50;99.90;;;;;;5016555;28;20124;-70
2023/10/08 02:20:55;;;;;;;3.55;0.80;;;13.40;99.90;;;;;;5039230;28;20426;-70
2023/10/08 02:23:21;;;;;;;6.47;0.93;;;13.50;99.90;;;;;;5021580;28;20041;-70
2023/10/08 02:25:47;;;;;;;6.15;0.88;;;13.50;99.90;;;;;;5060681;28;20523;-71
2023/10/08 02:28:15;;;;;;;6.18;0.95;;;13.50;99.90;;;;;;5021132;28;20064;-70
2023/10/08 02:30:42;;;;;;;6.72;1.10;;;13.50;99.90;;;;;;5048673;28;20048;-70
2023/10/08 02:33:15;;;;;;;6.22;1.08;;;13.50;99.90;;;;;;5017972;28;20064;-70
2023/10/08 02:35:42;;;;;;;3.90;0.70;;;13.50;99.90;;;;;;5043240;28;20053;-70
2023/10/08 02:38:12;;;;;;;6.05;1.20;;;13.50;99.90;;;;;;5018983;28;20064;-71
2023/10/08 02:40:44;;;;;;;7.70;0.93;;;13.50;99.90;;;;;;5036957;28;20059;-71
2023/10/08 02:43:11;;;;;;;4.20;1.00;;;13.40;99.90;;;;;;5019614;28;20057;-71
2023/10/08 02:45:40;;;;;;;7.00;1.00;;;13.40;99.90;;;;;;5048238;28;20055;-70
2023/10/08 02:48:16;;;;;;;2.88;0.70;;;13.50;99.90;;;;;;5016331;28;20454;-71
2023/10/08 02:50:45;;;;;;;6.22;1.17;;;13.50;99.90;;;;;;5033199;28;20060;-71
2023/10/08 02:53:12;;;;;;;3.85;1.00;;;13.50;99.90;;;;;;5002009;28;106023;-71
2023/10/08 02:55:44;;;;;;;5.50;1.00;;;13.50;99.90;;;;;;5003976;28;20045;-71
2023/10/08 02:58:14;;;;;;;5.80;0.90;;;13.40;99.90;;;;;;5016608;28;20782;-71
2023/10/08 03:00:46;;;;;;;3.15;0.80;;;13.50;99.90;;;;;;5028722;28;20135;-71
2023/10/08 03:03:18;;;;;;;6.85;1.23;;;13.50;99.90;;;;;;5016202;28;20052;-71
2023/10/08 03:05:46;;;;;;;;;;;13.50;99.90;;;;;;5048065;28;20569;-71
2023/10/08 03:08:20;;;;;;;6.22;1.10;;;13.50;99.90;;;;;;5018762;28;19920;-70
2023/10/08 03:10:55;;;;;;;4.72;0.90;;;13.50;99.90;;;;;;5051506;28;20051;-70
2023/10/08 03:13:22;;;;;;;5.00;1.00;;;13.50;99.90;;;;;;5021524;28;21678;-71
2023/10/08 03:18:37;;;;;;;6.35;1.20;;;13.50;99.90;;;;;;5022610;28;20044;-70
2023/10/08 03:21:48;;;;;;;6.90;1.10;;;13.50;99.90;;;;;;5058643;28;20071;-71
2023/10/08 03:23:58;;;;;;;4.13;0.90;;;13.50;99.90;;;;;;5003963;28;20049;-70
2023/10/08 03:26:37;;;;;;;6.28;1.10;;;13.50;99.90;;;;;;5057460;28;20043;-70
2023/10/08 03:29:17;;;;;;;4.18;0.98;;;13.50;99.90;;;;;;5019841;28;20052;-70
2023/10/08 03:31:49;;;;;;;5.70;1.00;;;13.50;99.90;;;;;;5060410;28;20060;-71
2023/10/08 03:34:19;;;;;;;7.85;1.13;;;13.50;99.90;;;;;;5007516;28;20527;-71
2023/10/08 03:36:47;;;;;;;5.65;1.02;;;13.50;99.90;;;;;;5052559;28;20057;-70
2023/10/08 03:39:20;;;;;;;5.88;0.90;;;13.50;99.90;;;;;;4998144;28;20047;-70
2023/10/08 03:42:05;;;;;;;8.80;1.20;;;13.50;99.90;;;;;;5056253;28;20048;-70
2023/10/08 03:44:32;;;;;;;8.27;1.38;;;13.50;99.90;;;;;;5014621;28;20056;-70
2023/10/08 03:46:58;;;;;;;5.47;1.00;;;13.50;99.90;;;;;;5057040;28;20056;-71
2023/10/08 03:51:51;;;;;;;4.07;0.80;;;13.50;99.90;;;;;;5053086;28;20045;-71
2023/10/08 03:54:34;;;;;;;8.90;1.08;;;13.50;99.90;;;;;;4982908;28;203940;-71
2023/10/08 03:57:00;;;;;;;5.70;1.48;;;13.50;99.90;;;;;;5051814;28;20056;-71
2023/10/08 04:02:13;;;;;;;5.68;1.20;;;13.50;99.90;;;;;;5057726;28;20062;-71
2023/10/08 04:04:51;;;;;;;9.30;1.35;;;13.50;99.90;;;;;;5016629;28;20040;-70
2023/10/08 04:12:43;;;;;;;7.57;1.30;;;13.40;99.90;;;;;;5057262;28;20439;-71
2023/10/08 04:15:12;;;;;;;5.80;1.27;;;13.50;99.90;;;;;;5001175;28;20037;-72
2023/10/08 04:17:50;;;;;;;5.50;1.42;;;13.40;99.90;;;;;;5055843;28;20834;-71
2023/10/08 04:23:13;;;;;;;7.70;1.52;;;13.40;99.90;;;;;;5019089;28;20048;-70
2023/10/08 04:25:41;;;;;;;7.50;2.00;;;13.40;99.90;;;;;;5029684;28;20567;-70
2023/10/08 04:28:13;;;;;;;6.45;1.30;;;13.30;99.90;;;;;;5017217;28;20096;-70
2023/10/08 04:30:41;;;;;;;6.60;1.58;;;13.30;99.90;;;;;;5055016;28;20056;-71
2023/10/08 04:33:12;;;;;;;6.35;1.50;;;13.30;99.90;;;;;;5017176;28;20812;-71
2023/10/08 04:35:55;;;;;;;9.88;1.67;;;13.30;99.90;;;;;;5064008;28;20064;-72
2023/10/08 04:38:26;;;;;;;8.38;1.58;;;13.30;99.90;;;;;;5004173;28;20049;-72
2023/10/08 04:40:52;;;;;;;8.68;1.58;;;13.40;99.90;;;;;;5044955;28;20068;-70
2023/10/08 04:43:27;;;;;;;9.65;1.83;;;13.30;99.90;;;;;;5015638;28;20049;-71
2023/10/08 04:45:57;;;;;;;8.77;1.80;;;13.30;99.90;;;;;;5020744;28;20148;-71
2023/10/08 04:48:24;;;;;;;7.85;2.17;;;13.30;99.90;;;;;;5011783;28;20061;-71
2023/10/08 04:50:58;;;;;;;8.88;1.83;;;13.30;99.90;;;;;;5048767;28;20048;-70
2023/10/08 04:53:35;;;;;;;7.90;1.60;;;13.30;99.90;;;;;;5009152;28;45866;-70
2023/10/08 04:56:07;;;;;;;6.38;1.83;;;13.30;99.90;;;;;;5051838;28;20063;-71
2023/10/08 04:58:35;;;;;;;;;;;13.30;99.90;;;;;;5011168;28;20076;-71
2023/10/08 05:01:20;;;;;;;7.60;2.00;;;13.30;99.90;;;;;;5019787;28;19917;-72
2023/10/08 05:17:21;;;;;;;9.57;1.98;;;13.20;99.90;;;;;;5051000;28;20511;-73
2023/10/08 05:30:37;;;;;;;6.97;1.60;;;13.30;99.90;;;;;;4967311;28;20041;-71
2023/10/08 05:33:24;;;;;;;9.00;2.00;;;13.30;99.90;;;;;;5007731;28;20550;-71
2023/10/08 05:35:54;;;;;;;7.82;1.75;;;13.30;99.90;;;;;;5051928;28;20044;-71
2023/10/08 05:38:23;;;;;;;7.93;1.90;;;13.30;99.90;;;;;;5012558;28;20045;-72
2023/10/08 05:57:14;;;;;;;7.88;2.10;;;13.30;99.90;;;;;;5057719;28;20503;-71
2023/10/08 06:13:43;;;;;;;12.57;2.15;;;13.20;99.90;;;;;;5021036;28;20087;-72
2023/10/08 06:16:13;;;;;;;8.75;2.40;;;13.20;99.90;;;;;;5046988;28;20040;-71
2023/10/08 06:18:39;;;;;;;11.07;2.22;;;13.20;99.90;;;;;;5022331;28;20063;-71
2023/10/08 06:21:11;;;;;;;8.80;2.50;;;13.20;99.90;;;;;;5047306;28;20056;-72
2023/10/08 06:23:39;;;;;;;7.85;2.20;;;13.30;99.90;;;;;;5011787;28;20053;-71
2023/10/08 06:26:14;;;;;;;11.40;2.50;;;13.30;99.90;;;;;;5051856;28;20530;-72
2023/10/08 06:28:42;;;;;;;9.40;2.53;;;13.30;99.90;;;;;;5009825;28;20864;-72
2023/10/08 06:31:11;;;;;;;11.45;2.47;;;13.30;99.90;;;;;;5059236;28;20064;-71
2023/10/08 06:33:40;;;;;;;8.68;2.65;;;13.30;99.90;;;;;;5013664;28;20061;-72
2023/10/08 06:36:15;;;;;;;9.13;2.20;;;13.30;99.90;;;;;;5052107;28;20067;-71
2023/10/08 06:38:48;;;;;;;11.45;2.50;;;13.30;99.90;;;;;;5015436;28;20067;-71
2023/10/08 06:41:17;;;;;;;11.82;2.28;;;13.40;99.90;;;;;;5053751;28;20174;-72
2023/10/08 06:43:49;;;;;;;9.55;2.75;;;13.40;99.90;;;;;;5017576;28;20062;-71
2023/10/08 06:46:18;;;;;;;9.57;2.10;;;13.40;99.90;;;;;;5049882;28;20140;-72
2023/10/08 06:48:46;;;;;;;7.63;2.65;;;13.40;99.90;;;;;;5018483;28;20052;-71
2023/10/08 06:51:13;;;;;;;13.23;3.03;;;13.50;99.90;;;;;;5055864;28;20059;-72
2023/10/08 06:53:45;;;;;;;10.27;2.47;;;13.50;99.90;;;;;;5003309;28;41563;-72
2023/10/08 06:56:13;;;;;;;9.60;2.20;;;13.60;99.90;;;;;;5049260;28;20061;-72
2023/10/08 06:58:45;;;;;;;8.50;2.20;;;13.60;99.90;;;;;;5014445;28;20072;-72
2023/10/08 07:01:13;;;;;;;9.18;1.95;;;13.70;99.90;;;;;;5062148;28;20059;-72
2023/10/08 07:03:39;;;;;;;9.82;2.40;;;13.60;99.90;;;;;;5011092;28;20120;-72
2023/10/08 07:06:16;;;;;;;8.73;2.47;;;13.70;99.90;;;;;;5050987;28;20055;-71
2023/10/08 07:08:46;;;;;;;9.23;2.30;;;13.80;99.90;;;;;;5017843;28;20051;-72
2023/10/08 07:11:13;;;;;;;8.67;2.33;;;13.80;99.90;;;;;;5049476;28;20546;-72
2023/10/08 07:13:42;;;;;;;10.88;2.40;;;13.80;99.90;;;;;;5011465;28;20310;-72
2023/10/08 07:16:11;;;;;;;10.20;2.40;;;13.90;99.90;;;;;;5061696;28;20057;-71
2023/10/08 07:18:38;;;;;;;8.20;2.22;;;13.90;99.90;;;;;;5009856;28;20048;-72
2023/10/08 07:21:12;;;;;;;9.52;2.10;;;14.00;99.90;;;;;;5054084;28;20057;-72
2023/10/08 07:23:55;;;;;;;6.88;1.83;;;14.10;99.90;;;;;;5023903;28;20064;-71
2023/10/08 07:26:26;;;;;;;10.88;2.50;;;14.10;99.90;;;;;;5046464;28;20053;-72
2023/10/08 07:28:53;;;;;;;8.13;2.10;;;14.10;99.90;;;;;;5016777;28;20075;-73
2023/10/08 07:31:21;;;;;;;9.55;1.92;;;14.10;99.90;;;;;;5047877;28;20068;-73
2023/10/08 07:33:56;;;;;;;8.18;1.80;;;14.10;99.90;;;;;;5016421;28;20064;-72
2023/10/08 07:36:24;;;;;;;9.05;1.73;;;14.10;99.90;;;;;;5052566;28;20052;-72
2023/10/08 07:38:51;;;;;;;8.55;1.95;;;14.20;99.90;;;;;;5011796;28;20072;-70
2023/10/08 07:41:20;;;;;;;8.43;1.75;;;14.10;99.90;;;;;;5037868;28;20067;-71
2023/10/08 07:43:56;;;;;;;7.70;1.77;;;14.20;99.90;;;;;;5016062;28;20726;-71
2023/10/08 07:46:22;;;;;;;8.70;1.77;;;14.30;99.90;;;;;;5053478;28;20064;-71
2023/10/08 07:48:50;;;;;;;11.35;1.70;;;14.20;99.90;;;;;;5007514;28;20522;-71
2023/10/08 07:51:23;;;;;;;9.10;1.40;;;14.30;99.90;;;;;;5033018;28;20060;-71
2023/10/08 07:53:59;;;;;;;10.10;1.60;;;14.30;99.90;;;;;;5000504;28;20057;-71
2023/10/08 07:56:26;;;;;;;11.20;1.88;;;14.30;99.90;;;;;;5044393;28;20573;-71
2023/10/08 07:58:56;;;;;;;9.73;1.70;;;14.30;99.90;;;;;;5012581;28;20048;-72
2023/10/08 08:01:24;;;;;;;13.25;2.20;;;14.30;99.90;;;;;;5048719;28;20056;-71
2023/10/08 08:03:51;;;;;;;10.15;1.58;;;14.40;99.90;;;;;;5004386;28;20451;-70
2023/10/08 08:06:17;;;;;;;8.65;1.63;;;14.40;99.90;;;;;;5052998;28;20165;-70
2023/10/08 08:08:44;;;;;;;12.93;1.83;;;14.50;99.90;;;;;;5004791;28;20578;-71
2023/10/08 08:11:17;;;;;;;11.43;2.03;;;14.40;99.90;;;;;;5053323;28;20049;-72
2023/10/08 08:13:44;;;;;;;8.52;1.88;;;14.30;99.90;;;;;;5015924;28;20068;-71
2023/10/08 08:16:18;;;;;;;10.10;1.63;;;14.30;99.90;;;;;;5049680;28;20048;-71
2023/10/08 08:18:49;;;;;;;11.07;1.70;;;14.30;99.90;;;;;;5013061;28;20049;-71
2023/10/08 08:21:16;;;;;;;;;;;14.20;99.90;;;;;;5044693;28;20059;-70
2023/10/08 08:23:49;;;;;;;12.13;1.83;;;14.20;99.90;;;;;;5015601;28;20379;-71
2023/10/08 08:26:28;;;;;;;10.00;1.80;;;14.10;99.90;;;;;;5051290;28;20053;-71
2023/10/08 08:29:01;;;;;;;11.27;1.77;;;14.10;99.90;;;;;;5018570;28;20059;-71
2023/10/08 08:31:35;;;;;;;11.25;1.85;;;14.20;99.90;;;;;;5056794;28;20056;-70
2023/10/08 08:34:03;;;;;;;11.25;2.00;;;14.30;99.90;;;;;;5022170;28;20075;-71
2023/10/08 08:36:31;;;;;;;10.43;1.60;;;14.40;99.90;;;;;;5059453;28;20060;-70
2023/10/08 08:38:58;;;;;;;13.23;1.95;;;14.50;99.90;;;;;;5005383;28;20412;-70
2023/10/08 08:41:24;;;;;;;15.30;1.90;;;14.60;99.90;;;;;;5045793;28;20546;-70
2023/10/08 08:43:58;;;;;;;15.25;2.00;;;14.70;99.90;;;;;;4998537;28;20044;-72
2023/10/08 08:46:31;;;;;;;9.80;1.40;;;14.70;99.90;;;;;;5049361;28;20067;-72
2023/10/08 08:49:03;;;;;;;13.07;1.83;;;14.90;99.90;;;;;;5010092;28;20053;-72
2023/10/08 08:51:31;;;;;;;10.80;1.63;;;15.00;99.90;;;;;;5044138;28;20048;-71
2023/10/08 08:53:59;;;;;;;12.15;1.65;;;15.00;99.90;;;;;;4997494;28;132864;-71
2023/10/08 08:56:28;;;;;;;15.55;2.03;;;15.10;99.90;;;;;;5049114;28;20053;-72
2023/10/08 08:58:57;;;;;;;11.80;1.48;;;15.20;99.90;;;;;;5018715;28;20055;-71
2023/10/08 09:01:23;;;;;;;11.90;1.60;;;15.30;99.90;;;;;;5056864;28;20063;-71
2023/10/08 09:03:50;;;;;;;12.18;1.60;;;15.50;99.90;;;;;;5019876;28;20056;-72
2023/10/08 09:06:16;;;;;;;11.25;1.52;;;15.60;99.90;;;;;;5054381;28;20061;-71
2023/10/08 09:08:45;;;;;;;14.85;1.70;;;15.80;99.90;;;;;;4988437;28;20649;-71
2023/10/08 09:11:17;;;;;;;14.00;1.90;;;15.90;99.90;;;;;;5052883;28;20064;-71
2023/10/08 09:13:44;;;;;;;10.27;1.50;;;16.00;99.90;;;;;;5019341;28;20080;-71
2023/10/08 09:16:15;;;;;;;10.07;1.50;;;16.10;99.90;;;;;;5058045;28;20063;-71
2023/10/08 09:18:43;;;;;;;12.90;1.50;;;16.20;99.90;;;;;;5013906;28;20079;-71
2023/10/08 09:21:14;;;;;;;12.80;1.60;;;16.30;99.90;;;;;;5039418;28;20059;-72
2023/10/08 09:23:44;;;;;;;;;;;16.40;99.90;;;;;;5017057;28;20144;-72
2023/10/08 09:26:13;;;;;;;20.63;2.20;;;16.60;99.90;;;;;;5050698;28;19927;-72
2023/10/08 09:28:41;;;;;;;8.82;1.52;;;16.70;99.90;;;;;;5017400;28;20052;-71
2023/10/08 09:31:11;;;;;;;11.50;1.70;;;16.80;99.90;;;;;;5056643;28;20514;-71
2023/10/08 09:33:38;;;;;;;13.18;2.17;;;16.90;99.90;;;;;;5019844;28;20048;-72
2023/10/08 09:36:06;;;;;;;8.60;1.40;;;16.90;99.90;;;;;;5059782;28;20064;-71
2023/10/08 09:38:33;;;;;;;10.85;1.60;;;17.00;99.90;;;;;;5015254;28;20446;-71
2023/10/08 09:41:03;;;;;;;11.10;1.52;;;17.10;99.90;;;;;;5036133;28;20053;-71
2023/10/08 09:43:31;;;;;;;11.32;1.67;;;17.30;99.90;;;;;;5010635;28;20057;-72
2023/10/08 09:46:19;;;;;;;13.23;1.90;;;17.40;99.90;;;;;;5050294;28;20056;-71
2023/10/08 09:48:55;;;;;;;10.52;1.92;;;17.50;99.90;;;;;;5014645;28;20817;-71
2023/10/08 09:51:21;;;;;;;12.55;1.70;;;17.60;99.90;;;;;;5057364;28;20526;-72
2023/10/08 09:54:10;;;;;;;8.30;1.45;;;17.80;99.90;;;;;;4987569;28;249579;-70
2023/10/08 09:56:39;;;;;;;10.50;1.40;;;17.90;99.90;;;;;;5052968;28;20424;-71
2023/10/08 09:59:07;;;;;;;11.90;1.83;;;18.10;99.90;;;;;;5011613;28;20067;-71
2023/10/08 10:01:33;;;;;;;11.18;1.70;;;18.20;99.90;;;;;;5052627;28;20065;-71
2023/10/08 10:03:59;;;;;;;11.13;1.65;;;18.20;99.90;;;;;;5000911;28;20103;-70
2023/10/08 10:06:26;;;;;;;11.95;2.30;;;18.10;99.90;;;;;;5048229;28;20515;-71
2023/10/08 10:08:57;;;;;;;8.73;1.67;;;18.10;99.90;;;;;;5006505;28;20046;-71
2023/10/08 10:11:28;;;;;;;13.30;1.83;;;18.20;99.90;;;;;;5044777;28;20057;-70
2023/10/08 10:14:02;;;;;;;17.73;8.05;;;18.20;99.90;;;;;;5004583;28;20056;-71
2023/10/08 10:16:28;;;;;;;16.77;6.32;;;18.30;99.90;;;;;;5053604;28;20072;-72
2023/10/08 10:19:00;;;;;;;14.68;2.22;;;18.40;99.90;;;;;;5024618;28;20048;-70
2023/10/08 10:21:29;;;;;;;9.48;1.58;;;18.70;99.90;;;;;;5062191;28;20545;-71
2023/10/08 10:23:56;;;;;;;11.55;1.67;;;19.00;99.90;;;;;;5017709;28;20535;-72
2023/10/08 10:26:30;;;;;;;11.40;1.90;;;18.60;99.90;;;;;;5057776;28;20057;-72
2023/10/08 10:29:10;;;;;;;10.63;1.67;;;18.40;99.90;;;;;;5017719;28;20044;-72
2023/10/08 10:31:38;;;;;;;13.02;2.00;;;18.30;99.90;;;;;;5055554;28;20079;-71
2023/10/08 10:34:08;;;;;;;13.30;1.73;;;18.30;99.90;;;;;;5005413;28;20395;-70
2023/10/08 10:36:35;;;;;;;10.13;1.90;;;18.70;99.90;;;;;;5049467;28;20048;-71
2023/10/08 10:39:15;;;;;;;10.90;1.77;;;19.00;99.90;;;;;;5017128;28;20044;-70
2023/10/08 10:41:46;;;;;;;14.20;1.80;;;18.90;99.90;;;;;;5050858;28;20060;-72
2023/10/08 10:44:13;;;;;;;11.70;1.95;;;19.30;99.90;;;;;;5009011;28;20065;-69
2023/10/08 10:46:50;;;;;;;12.48;1.85;;;19.20;99.90;;;;;;5051173;28;20392;-71
2023/10/08 10:49:31;;;;;;;13.35;1.70;;;19.50;99.90;;;;;;5005722;28;20495;-70
2023/10/08 10:51:58;;;;;;;14.13;2.00;;;20.00;99.90;;;;;;5064809;28;20048;-70
2023/10/08 10:54:24;;;;;;;12.07;2.20;;;20.40;99.90;;;;;;4968763;28;187774;-72
2023/10/08 10:57:03;;;;;;;16.95;1.90;;;21.10;99.90;;;;;;5048615;28;20071;-72
2023/10/08 10:59:36;;;;;;;12.55;2.03;;;21.70;99.90;;;;;;5017165;28;20057;-70
2023/10/08 11:04:33;;;;;;;11.23;1.88;;;23.30;99.90;;;;;;5003813;28;20047;-69
2023/10/08 11:07:00;;;;;;;10.63;1.63;;;23.80;98.30;;;;;;5052473;28;20065;-71
2023/10/08 11:09:37;;;;;;;12.30;2.03;;;23.90;96.80;;;;;;5002935;28;20053;-72
2023/10/08 11:12:10;;;;;;;10.90;1.90;;;23.40;97.80;;;;;;5056332;28;20064;-71
2023/10/08 11:14:46;;;;;;;9.65;1.50;;;23.30;98.00;;;;;;5003740;28;20092;-71
2023/10/08 11:17:28;;;;;;;9.77;1.38;;;23.10;98.80;;;;;;5059190;28;20552;-72
2023/10/08 11:19:54;;;;;;;12.82;1.80;;;22.70;98.20;;;;;;5001637;28;20053;-72
2023/10/08 11:22:22;;;;;;;11.65;1.92;;;22.80;97.80;;;;;;5055504;28;20040;-70
2023/10/08 11:24:53;;;;;;;14.05;2.00;;;23.20;97.10;;;;;;4999223;28;20060;-71
2023/10/08 11:27:29;;;;;;;10.20;1.90;;;23.00;97.60;;;;;;5061615;28;20057;-72
2023/10/08 11:29:57;;;;;;;9.93;1.67;;;22.90;97.80;;;;;;5000459;28;20103;-72
2023/10/08 11:32:25;;;;;;;10.02;1.67;;;22.90;97.90;;;;;;5059261;28;20063;-72
2023/10/08 11:34:59;;;;;;;13.77;1.77;;;22.40;95.70;;;;;;4982449;28;245042;-72
2023/10/08 11:37:35;;;;;;;11.13;1.80;;;22.10;97.10;;;;;;5059348;28;20071;-71
2023/10/08 11:40:13;;;;;;;11.80;2.10;;;21.90;97.40;;;;;;5014197;28;20064;-72
2023/10/08 11:45:18;;;;;;;12.18;1.92;;;22.20;97.90;;;;;;5004930;28;169625;-71
2023/10/08 11:47:48;;;;;;;10.32;1.75;;;22.30;97.30;;;;;;5048723;28;20055;-68
2023/10/08 11:50:19;;;;;;;9.33;1.47;;;22.00;97.00;;;;;;5028405;28;89793;-71
2023/10/08 11:52:45;;;;;;;;;;;21.50;97.20;;;;;;5042699;28;20303;-70
2023/10/08 11:55:18;;;;;;;10.88;1.65;;;20.90;95.20;;;;;;5008847;28;136346;-71
2023/10/08 11:57:48;;;;;;;10.90;1.83;;;20.80;98.20;;;;;;5046997;28;20178;-70
2023/10/08 12:00:19;;;;;;;9.95;1.63;;;21.00;98.30;;;;;;5004794;28;90891;-71
2023/10/08 12:02:47;;;;;;;11.32;1.70;;;21.60;97.90;;;;;;5044279;28;20542;-68
2023/10/08 12:05:20;;;;;;;15.82;1.88;;;22.30;98.20;;;;;;5028679;28;202005;-70
2023/10/08 12:07:57;;;;;;;10.18;1.83;;;22.40;97.30;;;;;;5043604;28;20048;-70
2023/10/08 12:10:24;;;;;;;9.70;1.70;;;22.30;97.30;;;;;;5019028;28;47286;-71
2023/10/08 12:12:54;;;;;;;10.02;1.52;;;22.30;97.00;;;;;;5029663;28;20052;-71
2023/10/08 12:15:21;;;;;;;10.15;1.50;;;22.10;96.90;;;;;;5024365;28;104310;-72
2023/10/08 12:20:53;;;;;;;11.90;1.70;;;21.70;96.50;;;;;;4997139;28;20719;-72
2023/10/08 12:23:25;;;;;;;10.40;1.70;;;21.20;97.10;;;;;;4972171;28;111571;-71
2023/10/08 12:25:52;;;;;;;9.93;1.50;;;21.10;96.80;;;;;;5006073;28;20045;-71
2023/10/08 12:28:19;;;;;;;11.27;1.90;;;20.90;96.80;;;;;;4969940;28;127810;-72
2023/10/08 12:30:45;;;;;;;11.32;1.77;;;20.90;97.60;;;;;;5012262;28;20053;-72
2023/10/08 12:33:15;;;;;;;10.05;1.90;;;21.10;97.10;;;;;;4977578;28;20424;-71
2023/10/08 12:35:44;;;;;;;11.57;1.63;;;21.10;96.70;;;;;;5011668;28;20444;-72
2023/10/08 12:38:10;;;;;;;10.73;1.80;;;21.40;96.80;;;;;;4984206;28;241728;-71
2023/10/08 12:40:52;;;;;;;10.65;1.80;;;21.90;97.00;;;;;;4984469;28;20149;-72
2023/10/08 12:43:23;;;;;;;10.15;1.52;;;22.40;96.80;;;;;;4981229;28;20064;-71
2023/10/08 12:45:53;;;;;;;10.40;1.73;;;23.10;96.40;;;;;;4999712;28;20038;-72
2023/10/08 12:48:27;;;;;;;12.20;1.85;;;23.60;96.10;;;;;;4962478;28;109170;-72
2023/10/08 12:50:57;;;;;;;11.10;1.77;;;24.00;96.00;;;;;;5012466;28;20064;-71
2023/10/08 12:53:26;;;;;;;10.55;1.50;;;24.50;95.70;;;;;;5005245;28;66977;-71
2023/10/08 12:55:54;;;;;;;10.00;1.58;;;24.90;95.40;;;;;;5052266;28;20053;-71
2023/10/08 12:58:25;;;;;;;11.68;1.85;;;25.30;95.30;;;;;;5006652;28;238468;-71
2023/10/08 13:00:57;;;;;;;9.68;1.85;;;25.60;94.60;;;;;;5039007;28;20056;-71
2023/10/08 13:03:30;;;;;;;12.73;1.92;;;25.70;94.20;;;;;;5007451;28;202617;-70
2023/10/08 13:06:03;;;;;;;8.98;1.58;;;25.70;94.00;;;;;;5057633;28;20831;-72
2023/10/08 13:08:36;;;;;;;11.20;1.63;;;25.20;93.70;;;;;;5009885;28;202919;-72
2023/10/08 13:11:02;;;;;;;10.80;2.00;;;24.70;93.80;;;;;;5063809;28;20045;-72
2023/10/08 13:13:28;;;;;;;12.75;1.65;;;24.90;93.80;;;;;;5014358;28;88509;-71
2023/10/08 13:15:56;;;;;;;8.35;1.55;;;25.60;93.70;;;;;;5057405;28;20049;-71
2023/10/08 13:18:27;;;;;;;10.20;1.77;;;26.30;93.30;;;;;;5003786;28;162963;-71
2023/10/08 13:20:53;;;;;;;8.98;1.50;;;26.40;93.60;;;;;;5041481;28;20067;-70
2023/10/08 13:23:23;;;;;;;10.73;1.60;;;26.40;93.00;;;;;;5003290;28;242583;-70
2023/10/08 13:25:58;;;;;;;6.65;1.33;;;26.70;92.80;;;;;;5053195;28;20053;-71
2023/10/08 13:28:26;;;;;;;11.50;1.92;;;26.20;92.50;;;;;;5011436;28;57789;-70
2023/10/08 13:30:54;;;;;;;8.15;1.48;;;25.60;92.80;;;;;;5049627;28;20061;-71
2023/10/08 13:33:22;;;;;;;9.13;1.60;;;25.10;93.00;;;;;;5013267;28;182491;-70
2023/10/08 13:35:49;;;;;;;8.60;1.70;;;24.60;93.30;;;;;;5042316;28;20053;-71
2023/10/08 13:38:20;;;;;;;10.27;1.48;;;24.10;93.00;;;;;;4999530;28;204982;-71
2023/10/08 13:43:35;;;;;;;9.90;1.50;;;22.90;93.10;;;;;;5001271;28;243204;-69
2023/10/08 13:46:04;;;;;;;9.00;1.55;;;22.20;93.40;;;;;;5051105;28;20056;-70
2023/10/08 13:48:35;;;;;;;7.80;1.50;;;21.70;93.10;;;;;;5006837;28;249374;-70
2023/10/08 13:51:03;;;;;;;8.27;1.40;;;21.30;93.80;;;;;;5058273;28;20044;-70
2023/10/08 13:53:33;;;;;;;10.80;1.70;;;21.10;94.10;;;;;;4990823;28;131812;-70
2023/10/08 13:56:00;;;;;;;9.68;1.58;;;21.00;94.40;;;;;;5043634;28;20064;-70
2023/10/08 13:58:30;;;;;;;10.55;1.83;;;21.00;94.60;;;;;;5009647;28;190154;-70
2023/10/08 14:00:59;;;;;;;7.85;1.23;;;20.90;94.90;;;;;;5057742;28;20063;-71
2023/10/08 14:03:32;;;;;;;10.77;1.48;;;20.90;95.10;;;;;;5013838;28;127071;-71
2023/10/08 14:06:04;;;;;;;14.02;1.75;;;20.90;95.20;;;;;;5044087;28;20060;-72
2023/10/08 14:08:31;;;;;;;8.63;1.45;;;20.80;95.10;;;;;;5013665;28;67352;-72
2023/10/08 14:11:02;;;;;;;10.82;2.10;;;20.60;95.10;;;;;;5061599;28;20053;-71
2023/10/08 14:13:32;;;;;;;9.55;2.05;;;20.50;95.30;;;;;;5013867;28;78502;-71
2023/10/08 14:15:59;;;;;;;12.27;1.63;;;20.40;95.50;;;;;;5039785;28;20057;-72
2023/10/08 14:18:28;;;;;;;11.63;1.92;;;20.30;95.50;;;;;;5012859;28;185440;-71
2023/10/08 14:20:55;;;;;;;13.60;2.00;;;20.20;95.80;;;;;;5052234;28;20056;-71
2023/10/08 14:23:25;;;;;;;10.70;1.70;;;20.00;95.70;;;;;;5002321;28;137254;-71
2023/10/08 14:25:55;;;;;;;14.37;1.80;;;19.90;96.20;;;;;;5055957;28;20049;-72
2023/10/08 14:28:39;;;;;;;10.25;1.60;;;19.90;96.40;;;;;;5012699;28;166887;-71
2023/10/08 14:31:15;;;;;;;11.38;1.50;;;19.80;96.20;;;;;;5032144;28;20056;-72
2023/10/08 14:33:55;;;;;;;11.68;1.73;;;19.60;96.50;;;;;;5014187;28;90239;-72